Hauptseite
METAR-TAF:

METAR-TAF

Flughäfen :

Flughafen Jomo Kenyatta International

Nairobi, Kenia

Breite: 01-19S, Länge: 036-55E, Höhe: 1624 m

Beobachtung

Neuester Wetterbericht von vor 44 Minuten, um 11:30 UTC
Wind 7 kt aus Südost
Temperatur 24°C
Luftfeuchtigkeit 54%
Luftdruck 1020 hPa
Sichtweite 10 km oder mehr
Durchbrochene Bewölkung in der Höhe von 2700 ft

METAR: HKJK 261130Z 13007KT 9999 BKN027 24/14 Q1020

Zeit: 15:14 (12:14 UTC)

Prognose

Neuester Wetterbericht von vor 1 Stunde und 14 Minuten, um 11:00 UTC
Gültige Prognose vom 26 um 12 UTC bis 27 um 18 UTC
Wind 8 kt aus Süd/Südost
Sichtweite 10 km oder mehr
Leicht bewölkt in der Höhe von 2400 ft, Kumulonimbus.
Durchbrochene Bewölkung in der Höhe von 2500 ft
Übergehend zu
vom 26 um 15 UTC bis 26 um 18 UTC
Wind 10 kt aus Ost

TAF: HKJK 261100Z 2612/2718 16008KT 9999 FEW024CB BKN025 BECMG 2615/2618 09010KT

Wetterbeobachtungen und Prognosen von mehr als 4000 Flughäfen (METAR und TAF Bericht).

Die verfügbaren Stationen werden durch gelbe und rote Markierungen auf der Karte dargestellt.

Führen Sie die Maus auf sie, um den Namen der Station zu sehen.

Darauf klicken, um die Beobachtung von Wetterbeobachtungen und Prognosen zu sehen.

Um die Karte zu ändern : klicken Sie auf den grünen Tasten mit einem schwarzen Kreuz Zum Vergrößern, auf den grünen Button mit einem Gedankenstrich zu verkleinern, oder auf die grünen Pfeile für benachbarte Karten.


METAR-TAF: